Time;durP1;ratioP1;P1;durP2;ratioP2;P2;SDS_P1;SDS_P2;PMS_P1;PMS_P2;Temp;Humidity;BMP_temperature;BMP_pressure;BME280_temperature;BME280_humidity;BME280_pressure;Samples;Min_cycle;Max_cycle;Signal;HPM_P1;HPM_P2
2022/05/03 00:00:05;;;;;;;10.30;7.97;;;;;;;9.52;88.50;98432.97;5071817;28;20190;-55
2022/05/03 00:02:45;;;;;;;13.10;8.37;;;;;;;9.48;90.06;98430.78;5071485;28;20199;-52
2022/05/03 00:05:20;;;;;;;9.27;8.10;;;;;;;9.49;90.30;98433.25;5071498;28;20238;-52
2022/05/03 00:07:56;;;;;;;10.70;8.13;;;;;;;9.41;91.15;98428.78;5070168;28;20573;-52
2022/05/03 00:10:29;;;;;;;9.57;7.90;;;;;;;9.36;90.85;98430.19;5071574;28;20642;-51
2022/05/03 00:12:58;;;;;;;9.30;7.77;;;;;;;9.43;91.81;98431.25;5065271;28;20564;-51
2022/05/03 00:15:25;;;;;;;11.30;8.97;;;;;;;9.28;91.60;98426.53;5064216;28;20221;-54
2022/05/03 00:17:54;;;;;;;10.40;8.83;;;;;;;9.24;91.17;98429.56;5071390;28;20275;-51
2022/05/03 00:20:22;;;;;;;12.83;8.73;;;;;;;9.19;91.87;98432.63;5070523;28;20260;-51
2022/05/03 00:22:50;;;;;;;11.43;8.13;;;;;;;9.17;90.53;98424.13;5064069;28;20208;-52
2022/05/03 00:25:18;;;;;;;12.23;8.27;;;;;;;9.22;91.61;98423.69;5071193;28;20217;-52
2022/05/03 00:27:45;;;;;;;9.37;7.50;;;;;;;9.13;91.60;98428.00;5062785;28;20201;-52
2022/05/03 00:30:12;;;;;;;12.00;8.60;;;;;;;9.10;91.58;98420.47;5058012;28;20182;-52
2022/05/03 00:32:41;;;;;;;13.50;7.63;;;;;;;9.07;91.63;98425.97;5071436;28;20202;-53
2022/05/03 00:35:08;;;;;;;11.00;8.07;;;;;;;9.03;91.22;98419.44;5071122;28;20237;-51
2022/05/03 00:37:35;;;;;;;8.83;7.50;;;;;;;8.97;90.75;98420.84;5067012;28;20216;-52
2022/05/03 00:40:04;;;;;;;9.53;8.23;;;;;;;8.97;91.93;98418.25;5066087;28;20194;-51
2022/05/03 00:42:41;;;;;;;9.80;8.23;;;;;;;8.97;92.58;98419.03;5063718;28;20198;-51
2022/05/03 00:45:15;;;;;;;10.67;8.90;;;;;;;9.03;91.59;98419.44;5063409;28;20288;-51
2022/05/03 00:48:08;;;;;;;8.77;7.83;;;;;;;8.93;91.45;98412.50;5071193;28;20282;-54
2022/05/03 00:50:38;;;;;;;9.77;7.67;;;;;;;9.09;94.76;98424.06;5065646;28;20209;-52
2022/05/03 00:53:17;;;;;;;9.27;7.93;;;;;;;9.05;94.23;98425.31;5068025;28;20220;-51
2022/05/03 00:56:20;;;;;;;9.93;8.20;;;;;;;8.94;93.60;98423.72;5064552;28;20288;-51
2022/05/03 00:59:01;;;;;;;11.20;8.00;;;;;;;8.88;93.89;98421.72;5067678;28;20597;-51
2022/05/03 01:01:34;;;;;;;10.30;8.63;;;;;;;8.89;93.97;98426.75;5069762;28;20559;-53
2022/05/03 01:04:11;;;;;;;9.23;8.07;;;;;;;8.87;93.04;98423.47;5068186;28;20238;-54
2022/05/03 01:06:56;;;;;;;9.87;7.73;;;;;;;8.82;94.17;98420.50;5074770;28;20196;-52
2022/05/03 01:09:34;;;;;;;10.40;7.23;;;;;;;8.74;93.87;98423.00;5070012;28;20556;-51
2022/05/03 01:12:26;;;;;;;9.17;8.13;;;;;;;8.71;94.55;98422.31;5073971;28;20193;-54
2022/05/03 01:15:07;;;;;;;10.60;7.93;;;;;;;8.73;94.40;98422.19;5065823;28;20307;-51
2022/05/03 01:17:42;;;;;;;9.30;8.27;;;;;;;8.63;94.59;98418.81;5074644;28;20218;-52
2022/05/03 01:20:11;;;;;;;10.57;9.07;;;;;;;8.64;94.75;98421.25;5073781;28;20658;-51
2022/05/03 01:23:11;;;;;;;10.73;9.03;;;;;;;8.69;94.91;98413.84;5065706;28;20198;-52
2022/05/03 01:25:55;;;;;;;10.03;8.50;;;;;;;8.82;95.20;98420.50;5054308;28;20301;-51
2022/05/03 01:28:55;;;;;;;10.17;8.20;;;;;;;8.94;94.29;98408.13;5066543;28;20189;-52
2022/05/03 01:31:23;;;;;;;9.60;7.43;;;;;;;8.96;94.98;98407.00;5075152;28;20323;-51
2022/05/03 01:33:51;;;;;;;9.60;8.10;;;;;;;8.97;94.31;98413.84;5074230;28;20196;-52
2022/05/03 01:36:31;;;;;;;9.37;8.07;;;;;;;8.91;94.41;98409.22;5074281;28;20587;-53
2022/05/03 01:39:02;;;;;;;12.80;7.70;;;;;;;8.83;94.22;98412.56;5074670;28;20200;-53
2022/05/03 01:41:42;;;;;;;10.73;7.73;;;;;;;8.80;94.55;98414.59;5073875;28;20210;-52
2022/05/03 01:44:21;;;;;;;13.10;8.50;;;;;;;8.77;94.10;98415.72;5070985;28;20213;-51
2022/05/03 01:46:54;;;;;;;11.83;8.73;;;;;;;8.70;94.46;98410.25;5054519;28;20214;-52
2022/05/03 01:53:00;;;;;;;13.00;8.20;;;;;;;8.71;95.45;98416.31;5061503;28;20247;-51
2022/05/03 01:55:49;;;;;;;10.43;8.10;;;;;;;8.70;95.41;98410.25;5069901;28;20221;-52
2022/05/03 01:58:26;;;;;;;10.43;7.97;;;;;;;8.72;94.92;98407.53;5073106;28;20209;-51
2022/05/03 02:01:02;;;;;;;8.80;7.80;;;;;;;8.67;95.72;98409.75;5073174;28;20550;-54
2022/05/03 02:03:31;;;;;;;11.93;8.37;;;;;;;8.69;96.51;98397.41;5072780;28;20197;-52
2022/05/03 02:06:03;;;;;;;9.60;8.47;;;;;;;8.64;95.79;98404.84;5074003;28;20208;-52
2022/05/03 02:08:47;;;;;;;10.37;8.33;;;;;;;8.62;95.77;98406.75;5074096;28;20186;-53
2022/05/03 02:11:33;;;;;;;9.70;7.33;;;;;;;8.61;95.31;98405.13;5074116;28;20275;-53
2022/05/03 02:17:00;;;;;;;11.30;7.77;;;;;;;8.70;96.17;98397.25;5053810;28;20212;-51
2022/05/03 02:19:58;;;;;;;9.33;7.17;;;;;;;8.77;96.19;98407.09;5054298;28;20182;-52
2022/05/03 02:22:55;;;;;;;8.77;7.37;;;;;;;8.65;96.05;98407.28;5054047;28;20200;-51
2022/05/03 02:25:36;;;;;;;14.87;7.83;;;;;;;8.65;96.13;98404.66;5052169;28;20213;-51
2022/05/03 02:28:06;;;;;;;9.63;7.80;;;;;;;8.67;95.78;98410.56;5053869;28;20243;-52
2022/05/03 02:30:34;;;;;;;10.07;7.83;;;;;;;8.53;94.95;98409.25;5054253;28;20227;-54
2022/05/03 02:33:10;;;;;;;12.47;7.57;;;;;;;8.50;95.41;98411.31;5052462;28;20205;-52
2022/05/03 02:35:37;;;;;;;10.30;8.13;;;;;;;8.45;95.41;98410.91;5053126;28;20581;-52
2022/05/03 02:38:06;;;;;;;8.93;7.73;;;;;;;8.41;95.89;98408.59;5070321;28;20216;-51
2022/05/03 02:40:34;;;;;;;11.10;8.47;;;;;;;8.47;96.57;98403.78;5073994;28;20174;-51
2022/05/03 02:43:02;;;;;;;9.47;7.90;;;;;;;8.37;96.07;98404.63;5067756;28;20208;-53
2022/05/03 02:45:33;;;;;;;9.53;7.93;;;;;;;8.41;97.30;98411.19;5065602;28;20251;-53
2022/05/03 02:48:14;;;;;;;8.20;7.40;;;;;;;8.45;97.81;98411.72;5066441;28;20614;-54
2022/05/03 02:50:50;;;;;;;11.63;8.27;;;;;;;8.32;97.28;98416.41;5065184;28;20262;-54
2022/05/03 02:53:24;;;;;;;9.90;7.93;;;;;;;8.26;97.71;98412.59;5065875;28;20187;-55
2022/05/03 02:55:53;;;;;;;11.60;9.30;;;;;;;8.21;97.99;98417.41;5065163;28;20239;-53
2022/05/03 02:58:46;;;;;;;9.40;7.50;;;;;;;8.32;98.42;98406.00;5065280;28;20208;-52
2022/05/03 03:04:16;;;;;;;8.73;7.37;;;;;;;8.07;98.23;98403.06;5065582;28;20263;-53
2022/05/03 03:06:44;;;;;;;8.57;7.50;;;;;;;8.06;99.03;98414.41;5065596;28;20559;-54
2022/05/03 03:09:18;;;;;;;8.97;7.80;;;;;;;8.01;99.07;98396.66;5066043;28;20192;-53
2022/05/03 03:11:57;;;;;;;10.83;7.87;;;;;;;7.99;98.49;98395.97;5065709;28;20634;-53
2022/05/03 03:14:35;;;;;;;9.23;7.60;;;;;;;7.90;98.10;98400.25;5064355;28;20216;-53
2022/05/03 03:17:06;;;;;;;9.10;7.83;;;;;;;7.85;98.63;98399.00;5060461;28;20224;-52
2022/05/03 03:20:09;;;;;;;10.93;8.13;;;;;;;7.80;99.14;98397.63;5064072;28;20197;-53
2022/05/03 03:22:38;;;;;;;11.87;8.30;;;;;;;7.92;100.00;98403.53;5064584;28;20628;-51
2022/05/03 03:25:06;;;;;;;10.20;7.90;;;;;;;7.92;100.00;98408.72;5069205;28;20537;-50
2022/05/03 03:27:35;;;;;;;13.30;8.47;;;;;;;7.90;100.00;98404.59;5057624;28;20674;-51
2022/05/03 03:30:04;;;;;;;9.80;7.97;;;;;;;7.86;100.00;98405.84;5052706;28;20215;-50
2022/05/03 03:32:32;;;;;;;9.73;7.77;;;;;;;7.89;100.00;98409.00;5061585;28;20186;-53
2022/05/03 03:35:00;;;;;;;10.73;8.27;;;;;;;7.91;100.00;98406.25;5070855;28;20311;-50
2022/05/03 03:37:31;;;;;;;9.53;7.90;;;;;;;7.92;100.00;98402.69;5073104;28;20298;-50
2022/05/03 03:40:18;;;;;;;12.67;8.90;;;;;;;7.83;100.00;98399.97;5071083;28;20240;-52
2022/05/03 03:42:47;;;;;;;11.67;8.90;;;;;;;7.88;100.00;98402.16;5072908;28;20208;-51
2022/05/03 03:45:17;;;;;;;12.93;8.60;;;;;;;7.82;100.00;98400.91;5063682;28;20641;-51
2022/05/03 03:47:46;;;;;;;11.27;8.40;;;;;;;7.84;100.00;98406.00;5065164;28;20535;-51
2022/05/03 03:50:13;;;;;;;10.27;8.33;;;;;;;7.78;100.00;98398.75;5064494;28;20193;-53
2022/05/03 03:52:43;;;;;;;12.03;9.07;;;;;;;7.72;100.00;98400.09;5072536;28;20197;-50
2022/05/03 03:55:11;;;;;;;12.37;8.50;;;;;;;7.66;100.00;98406.69;5052355;28;20215;-50
2022/05/03 03:57:39;;;;;;;10.10;8.60;;;;;;;7.71;100.00;98402.84;5066498;28;20311;-50
2022/05/03 04:00:09;;;;;;;10.17;8.03;;;;;;;7.74;100.00;98410.38;5053206;28;20313;-51
2022/05/03 04:02:41;;;;;;;10.47;7.83;;;;;;;7.68;100.00;98403.94;5052205;28;20193;-52
2022/05/03 04:05:14;;;;;;;10.87;8.30;;;;;;;7.64;100.00;98407.75;5051572;28;20218;-51
2022/05/03 04:07:43;;;;;;;10.43;8.27;;;;;;;7.63;100.00;98411.31;5052006;28;20194;-53
2022/05/03 04:10:11;;;;;;;9.27;8.07;;;;;;;7.66;100.00;98411.03;5051865;28;20269;-51
2022/05/03 04:12:39;;;;;;;8.37;7.33;;;;;;;7.75;100.00;98415.41;5057760;28;20205;-51
2022/05/03 04:15:07;;;;;;;9.67;8.47;;;;;;;7.75;100.00;98409.41;5055449;28;20205;-50
2022/05/03 04:17:34;;;;;;;11.13;8.20;;;;;;;7.74;100.00;98416.38;5072490;28;20753;-51
2022/05/03 04:20:02;;;;;;;11.33;8.23;;;;;;;7.74;100.00;98418.16;5064126;28;20190;-53
2022/05/03 04:22:31;;;;;;;12.90;8.47;;;;;;;7.73;100.00;98417.34;5072514;28;20679;-50
2022/05/03 04:25:01;;;;;;;9.23;8.03;;;;;;;7.77;100.00;98418.69;5072088;28;20198;-52
2022/05/03 04:27:28;;;;;;;10.07;8.50;;;;;;;7.78;100.00;98412.53;5072541;28;20189;-53
2022/05/03 04:29:58;;;;;;;12.73;9.03;;;;;;;7.92;100.00;98418.28;5072429;28;20184;-51
2022/05/03 04:32:29;;;;;;;9.33;8.17;;;;;;;7.93;100.00;98412.13;5073054;28;20191;-51
2022/05/03 04:34:57;;;;;;;13.23;7.70;;;;;;;7.94;100.00;98414.59;5071978;28;20548;-50
2022/05/03 04:37:24;;;;;;;10.23;7.40;;;;;;;8.04;100.00;98424.97;5070232;28;20215;-51
2022/05/03 04:39:52;;;;;;;11.57;7.90;;;;;;;8.13;100.00;98420.69;5072509;28;20197;-52
2022/05/03 04:42:20;;;;;;;8.70;7.10;;;;;;;8.11;100.00;98420.84;5070662;28;20210;-50
2022/05/03 04:44:48;;;;;;;14.13;8.40;;;;;;;8.18;100.00;98420.28;5071952;28;20606;-53
2022/05/03 04:47:15;;;;;;;11.30;7.93;;;;;;;8.21;100.00;98420.00;5072110;28;20625;-52
2022/05/03 04:49:42;;;;;;;10.73;7.97;;;;;;;8.22;100.00;98429.44;5071896;28;20229;-53
2022/05/03 04:52:10;;;;;;;9.30;7.87;;;;;;;8.25;100.00;98424.78;5070112;28;20204;-50
2022/05/03 04:54:37;;;;;;;11.47;8.43;;;;;;;8.28;100.00;98427.09;5071756;28;20203;-53
2022/05/03 04:57:07;;;;;;;11.93;7.73;;;;;;;8.32;100.00;98430.25;5072063;28;20192;-51
2022/05/03 04:59:37;;;;;;;10.17;8.30;;;;;;;8.37;100.00;98438.44;5071653;28;20268;-51
2022/05/03 05:02:05;;;;;;;12.57;8.40;;;;;;;8.47;100.00;98441.00;5072195;28;20283;-50
2022/05/03 05:04:32;;;;;;;9.97;8.30;;;;;;;8.55;100.00;98438.56;5071722;28;20210;-52
2022/05/03 05:06:59;;;;;;;10.57;8.30;;;;;;;8.56;100.00;98445.38;5072077;28;20230;-53
2022/05/03 05:09:26;;;;;;;9.87;7.77;;;;;;;8.59;100.00;98443.47;5072005;28;20217;-50
2022/05/03 05:11:53;;;;;;;8.87;7.70;;;;;;;8.60;100.00;98435.50;5071925;28;20183;-53
2022/05/03 05:14:21;;;;;;;14.10;10.70;;;;;;;8.64;100.00;98447.25;5070308;28;20694;-53
2022/05/03 05:16:50;;;;;;;14.03;11.10;;;;;;;8.68;100.00;98442.63;5071901;28;20208;-50
2022/05/03 05:19:17;;;;;;;17.70;12.90;;;;;;;8.69;100.00;98444.25;5071832;28;20213;-50
2022/05/03 05:21:44;;;;;;;11.10;8.33;;;;;;;8.75;100.00;98446.28;5071717;28;20188;-54
2022/05/03 05:24:11;;;;;;;10.63;8.43;;;;;;;8.79;100.00;98446.81;5071637;28;20216;-51
2022/05/03 05:26:40;;;;;;;8.57;7.67;;;;;;;8.80;100.00;98449.28;5071911;28;20185;-51
2022/05/03 05:29:08;;;;;;;9.33;8.27;;;;;;;8.83;100.00;98443.78;5070586;28;20197;-51
2022/05/03 05:31:35;;;;;;;8.70;7.60;;;;;;;8.86;100.00;98450.47;5069886;28;20232;-55
2022/05/03 05:34:03;;;;;;;10.00;8.33;;;;;;;8.89;99.99;98451.97;5071272;28;20729;-53
2022/05/03 05:36:30;;;;;;;10.80;8.70;;;;;;;8.89;99.86;98444.16;5071656;28;20231;-53
2022/05/03 05:38:58;;;;;;;12.80;10.60;;;;;;;8.92;99.60;98452.50;5070411;28;20226;-50
2022/05/03 05:41:26;;;;;;;10.40;9.00;;;;;;;8.97;98.97;98457.28;5071709;28;20199;-54
2022/05/03 05:43:52;;;;;;;13.93;9.00;;;;;;;8.99;98.78;98465.78;5071379;28;20671;-51
2022/05/03 05:46:19;;;;;;;13.70;12.17;;;;;;;8.97;99.44;98465.91;5071609;28;20196;-50
2022/05/03 05:48:46;;;;;;;15.70;11.27;;;;;;;8.97;99.17;98459.88;5072361;28;20600;-51
2022/05/03 05:51:15;;;;;;;14.63;10.50;;;;;;;9.01;98.95;98469.03;5075278;28;20207;-52
2022/05/03 05:53:43;;;;;;;11.93;9.77;;;;;;;9.10;98.70;98472.56;5075275;28;20193;-51
2022/05/03 05:56:10;;;;;;;10.93;9.17;;;;;;;9.15;99.16;98467.72;5075256;28;20192;-51
2022/05/03 05:58:38;;;;;;;12.63;9.98;;;;;;;9.25;98.43;98471.09;5074832;28;20488;-50
2022/05/03 06:01:05;;;;;;;10.60;9.37;;;;;;;9.37;98.14;98473.50;5074885;28;20884;-49
2022/05/03 06:03:34;;;;;;;14.73;9.93;;;;;;;9.49;98.06;98468.91;5074964;28;20506;-53
2022/05/03 06:06:01;;;;;;;10.83;8.73;;;;;;;9.66;97.63;98470.69;5074983;28;20190;-49
2022/05/03 06:08:30;;;;;;;11.20;8.40;;;;;;;9.88;97.10;98472.03;5075071;28;20185;-50
2022/05/03 06:10:59;;;;;;;10.47;8.80;;;;;;;10.11;96.27;98471.56;5068238;28;20558;-50
2022/05/03 06:13:27;;;;;;;10.10;8.17;;;;;;;10.38;94.77;98466.34;5069113;28;20190;-49
2022/05/03 06:15:54;;;;;;;10.80;8.20;;;;;;;10.58;94.69;98469.63;5071303;28;20308;-51
2022/05/03 06:18:22;;;;;;;10.10;8.30;;;;;;;10.76;93.27;98469.53;5066387;28;20263;-49
2022/05/03 06:20:50;;;;;;;8.13;7.27;;;;;;;10.92;93.54;98461.78;5066518;28;20213;-52
2022/05/03 06:23:17;;;;;;;8.47;7.17;;;;;;;11.06;91.11;98462.97;5074819;28;20266;-50
2022/05/03 06:25:45;;;;;;;8.27;7.20;;;;;;;11.29;91.83;98469.38;5072973;28;20215;-52
2022/05/03 06:28:13;;;;;;;8.40;7.50;;;;;;;11.47;90.46;98461.44;5074614;28;20185;-49
2022/05/03 06:30:41;;;;;;;10.23;7.67;;;;;;;11.66;89.16;98471.59;5073218;28;20225;-51
2022/05/03 06:33:09;;;;;;;7.70;6.83;;;;;;;11.95;86.03;98480.75;5066075;28;20218;-53
2022/05/03 06:35:54;;;;;;;9.20;7.80;;;;;;;12.39;84.09;98477.00;5054601;28;20218;-50
2022/05/03 06:38:21;;;;;;;7.70;6.90;;;;;;;12.74;83.47;98483.81;5054397;28;20196;-49
2022/05/03 06:40:49;;;;;;;19.53;7.40;;;;;;;13.03;79.49;98482.41;5054357;28;20186;-50
2022/05/03 06:43:16;;;;;;;16.27;10.03;;;;;;;13.25;77.35;98491.28;5054270;28;20661;-50
2022/05/03 06:45:43;;;;;;;18.93;10.73;;;;;;;13.21;77.13;98480.34;5053989;28;20209;-52
2022/05/03 06:48:12;;;;;;;14.63;9.53;;;;;;;13.22;75.63;98487.22;5053012;28;20194;-52
2022/05/03 06:50:39;;;;;;;14.77;11.23;;;;;;;13.14;77.02;98490.69;5053828;28;20193;-51
2022/05/03 06:53:07;;;;;;;15.13;10.93;;;;;;;13.17;74.45;98496.56;5053837;28;20195;-50
2022/05/03 06:55:34;;;;;;;16.63;11.27;;;;;;;13.03;76.04;98498.91;5053959;28;20217;-50
2022/05/03 06:58:02;;;;;;;13.97;10.87;;;;;;;12.89;76.63;98497.84;5054065;28;20204;-50
2022/05/03 07:00:30;;;;;;;14.20;11.40;;;;;;;12.82;77.20;98500.28;5053607;28;20267;-50
2022/05/03 07:02:57;;;;;;;16.80;12.20;;;;;;;12.98;76.36;98493.38;5054351;28;20545;-51
2022/05/03 07:05:24;;;;;;;14.17;12.27;;;;;;;13.05;75.35;98499.56;5053752;28;20218;-50
2022/05/03 07:07:51;;;;;;;15.50;13.17;;;;;;;13.31;75.20;98506.34;5053705;28;20178;-50
2022/05/03 07:10:18;;;;;;;17.90;12.97;;;;;;;13.02;75.47;98520.06;5053671;28;20600;-50
2022/05/03 07:12:46;;;;;;;16.13;12.57;;;;;;;13.31;75.42;98519.44;5053848;28;20192;-53
2022/05/03 07:15:14;;;;;;;18.63;14.30;;;;;;;13.36;75.76;98519.75;5053532;28;20205;-50
2022/05/03 07:23:29;;;;;;;16.07;13.33;;;;;;;14.23;69.83;98517.91;5053693;28;20188;-52
2022/05/03 07:25:57;;;;;;;19.57;14.13;;;;;;;14.17;70.47;98535.19;5053274;28;20204;-51
2022/05/03 07:28:25;;;;;;;18.17;15.10;;;;;;;14.07;71.06;98528.53;5053673;28;20222;-51
2022/05/03 07:30:53;;;;;;;16.37;13.20;;;;;;;14.38;70.64;98528.41;5053443;28;20184;-53
2022/05/03 07:33:21;;;;;;;19.13;14.87;;;;;;;14.42;68.40;98536.78;5053490;28;20193;-51
2022/05/03 07:35:48;;;;;;;17.03;13.57;;;;;;;14.45;69.12;98533.78;5052995;28;20292;-50
2022/05/03 07:38:15;;;;;;;16.90;14.23;;;;;;;14.46;69.35;98536.22;5051856;28;20308;-52
2022/05/03 07:41:01;;;;;;;19.67;14.93;;;;;;;14.67;68.38;98533.94;5053258;28;20615;-50
2022/05/03 07:43:28;;;;;;;16.80;14.50;;;;;;;14.55;68.80;98536.16;5052081;28;20198;-51
2022/05/03 07:45:57;;;;;;;17.93;15.33;;;;;;;14.18;70.76;98535.97;5052873;28;20202;-53
2022/05/03 07:48:25;;;;;;;19.40;16.27;;;;;;;14.13;71.24;98533.06;5053609;28;20587;-50
2022/05/03 07:51:11;;;;;;;23.37;16.23;;;;;;;14.10;72.23;98536.03;5053561;28;20207;-52
2022/05/03 07:53:39;;;;;;;20.60;16.57;;;;;;;14.14;73.47;98534.69;5052823;28;20192;-50
2022/05/03 07:56:06;;;;;;;23.77;16.93;;;;;;;14.14;73.43;98540.78;5052814;28;20200;-51
2022/05/03 07:58:35;;;;;;;21.38;17.88;;;;;;;14.08;72.67;98540.66;5052609;28;20458;-50
2022/05/03 08:01:05;;;;;;;18.33;15.17;;;;;;;14.09;72.94;98537.03;5052905;28;20583;-50
2022/05/03 08:03:32;;;;;;;19.80;16.40;;;;;;;14.27;71.98;98540.19;5052619;28;20192;-50
2022/05/03 08:05:59;;;;;;;20.27;16.83;;;;;;;14.21;72.19;98540.09;5052807;28;20197;-52
2022/05/03 08:08:26;;;;;;;21.57;16.10;;;;;;;14.28;71.58;98543.63;5052917;28;20185;-50
2022/05/03 08:10:53;;;;;;;18.23;15.23;;;;;;;14.28;71.88;98543.63;5052424;28;20619;-50
2022/05/03 08:13:21;;;;;;;21.10;16.77;;;;;;;14.30;71.52;98542.44;5052010;28;20577;-51
2022/05/03 08:16:18;;;;;;;19.40;17.10;;;;;;;14.43;72.06;98543.66;5052825;28;20271;-50
2022/05/03 08:18:45;;;;;;;19.73;16.73;;;;;;;14.43;72.08;98549.72;5052715;28;20203;-51
2022/05/03 08:21:13;;;;;;;20.17;17.33;;;;;;;14.53;71.91;98546.84;5052827;28;20211;-53
2022/05/03 08:23:40;;;;;;;21.33;17.90;;;;;;;14.66;71.40;98551.47;5052194;28;20223;-50
2022/05/03 08:26:07;;;;;;;21.30;17.87;;;;;;;14.48;72.04;98546.56;5052282;28;20194;-50
2022/05/03 08:28:35;;;;;;;23.27;17.97;;;;;;;14.65;72.13;98549.03;5052622;28;20691;-52
2022/05/03 08:31:02;;;;;;;21.63;16.43;;;;;;;14.85;70.15;98555.41;5052376;28;20186;-51
2022/05/03 08:33:31;;;;;;;22.73;16.80;;;;;;;14.83;69.83;98557.44;5052444;28;20190;-53
2022/05/03 08:35:59;;;;;;;23.93;17.13;;;;;;;14.83;69.72;98561.88;5050908;28;20201;-51
2022/05/03 08:43:59;;;;;;;18.67;14.97;;;;;;;15.35;68.08;98560.97;5069205;28;20222;-50
2022/05/03 08:46:27;;;;;;;20.33;14.73;;;;;;;15.54;68.28;98558.72;5067101;28;20193;-51
2022/05/03 08:49:02;;;;;;;20.17;16.37;;;;;;;15.88;68.12;98572.31;5063706;28;20189;-50
2022/05/03 08:51:31;;;;;;;17.73;15.07;;;;;;;15.83;65.73;98564.94;5071608;28;20189;-53
2022/05/03 08:54:00;;;;;;;22.53;15.23;;;;;;;15.70;67.49;98554.25;5071060;28;20263;-53
2022/05/03 08:56:27;;;;;;;20.77;15.13;;;;;;;16.10;65.06;98559.97;5071892;28;20191;-53
2022/05/03 08:58:55;;;;;;;17.03;14.97;;;;;;;15.96;64.34;98558.19;5072010;28;20277;-51
2022/05/03 09:01:22;;;;;;;17.77;14.67;;;;;;;15.71;65.71;98558.50;5072028;28;20269;-52
2022/05/03 09:03:49;;;;;;;16.87;15.03;;;;;;;15.43;66.83;98557.41;5071689;28;20187;-52
2022/05/03 09:06:19;;;;;;;20.20;15.73;;;;;;;15.15;68.47;98560.69;5071966;28;20185;-51
2022/05/03 09:08:50;;;;;;;19.93;17.20;;;;;;;14.99;69.95;98566.97;5072067;28;20182;-53
2022/05/03 09:11:19;;;;;;;21.57;15.27;;;;;;;14.96;70.85;98558.59;5071835;28;20236;-53
2022/05/03 09:13:48;;;;;;;18.47;14.73;;;;;;;14.88;70.38;98565.56;5071374;28;20645;-50
2022/05/03 09:16:16;;;;;;;18.20;15.90;;;;;;;14.97;70.64;98568.13;5071716;28;20193;-50
2022/05/03 09:18:45;;;;;;;18.27;16.00;;;;;;;14.89;70.72;98563.78;5469732;22;20274;-51
2022/05/03 09:24:10;;;;;;;20.00;15.23;;;;;;;14.90;71.41;98562.78;5023849;28;20202;-52
2022/05/03 09:26:39;;;;;;;20.97;15.13;;;;;;;15.02;71.39;98565.75;5035721;28;20179;-54
2022/05/03 09:29:08;;;;;;;21.20;15.57;;;;;;;15.01;71.35;98564.97;5035755;28;20655;-52
2022/05/03 09:31:37;;;;;;;18.17;13.20;;;;;;;15.08;70.98;98565.03;5035766;28;20187;-51
2022/05/03 09:34:17;;;;;;;17.97;15.97;;;;;;;15.15;70.19;98563.31;5035297;28;20273;-54
2022/05/03 09:36:48;;;;;;;17.77;15.77;;;;;;;15.04;70.65;98561.13;5035492;28;20189;-54
2022/05/03 09:39:24;;;;;;;17.10;15.27;;;;;;;15.14;69.96;98561.69;5035579;28;20713;-52
2022/05/03 09:42:09;;;;;;;20.33;15.63;;;;;;;15.33;69.85;98559.50;5026149;28;20190;-51
2022/05/03 09:44:40;;;;;;;18.53;14.30;;;;;;;15.33;71.07;98559.50;5016288;28;20215;-52
2022/05/03 09:47:09;;;;;;;19.33;15.50;;;;;;;15.38;71.34;98562.41;5017993;28;20667;-54
2022/05/03 09:49:37;;;;;;;20.17;15.60;;;;;;;15.32;70.44;98563.13;5018978;28;20260;-53
2022/05/03 09:52:09;;;;;;;20.73;16.33;;;;;;;15.26;70.83;98555.97;5024234;28;20192;-51
2022/05/03 09:54:49;;;;;;;20.43;14.83;;;;;;;15.25;71.41;98555.16;5015616;28;20223;-54
2022/05/03 09:57:21;;;;;;;16.87;14.80;;;;;;;15.27;71.55;98557.59;5023643;28;20183;-50
2022/05/03 09:59:49;;;;;;;16.37;14.17;;;;;;;15.37;71.66;98557.34;5031050;28;20219;-51
2022/05/03 10:02:18;;;;;;;21.33;16.63;;;;;;;15.42;71.94;98563.66;5035374;28;20196;-51
2022/05/03 10:04:45;;;;;;;19.27;16.20;;;;;;;15.65;70.53;98562.72;5024212;28;20242;-53
2022/05/03 10:07:13;;;;;;;18.87;15.53;;;;;;;15.60;70.08;98563.25;5025351;28;20191;-51
2022/05/03 10:09:41;;;;;;;19.17;15.40;;;;;;;15.57;70.23;98566.25;5026560;28;20201;-54
2022/05/03 10:12:11;;;;;;;17.73;15.43;;;;;;;15.49;70.06;98558.47;5024063;28;20196;-54
2022/05/03 10:14:39;;;;;;;20.20;14.93;;;;;;;15.39;71.14;98561.41;5022046;28;20541;-52
2022/05/03 10:22:42;;;;;;;16.57;13.80;;;;;;;15.29;73.70;98545.09;5001987;28;20203;-49
2022/05/03 10:25:10;;;;;;;18.33;15.07;;;;;;;15.34;74.33;98547.97;4997178;28;20307;-48
2022/05/03 10:27:55;;;;;;;21.03;16.67;;;;;;;15.26;75.53;98538.38;5015296;28;20189;-48
2022/05/03 10:30:24;;;;;;;18.53;16.60;;;;;;;15.32;76.06;98544.72;5015122;28;20187;-48
2022/05/03 10:33:29;;;;;;;21.00;16.13;;;;;;;15.53;75.77;98532.63;4997465;28;20271;-48
2022/05/03 10:35:57;;;;;;;24.27;15.77;;;;;;;15.53;75.58;98536.06;4996140;28;20254;-48
2022/05/03 10:38:38;;;;;;;22.20;17.60;;;;;;;15.78;73.31;98527.81;5015024;28;20188;-48
2022/05/03 10:41:08;;;;;;;20.20;16.70;;;;;;;16.01;73.30;98532.94;5014766;28;20191;-48
2022/05/03 10:43:37;;;;;;;21.00;16.63;;;;;;;16.08;71.96;98531.19;5014546;28;20188;-48
2022/05/03 10:46:10;;;;;;;36.03;22.63;;;;;;;16.26;71.95;98537.81;5011088;28;20332;-48
2022/05/03 10:48:41;;;;;;;15.13;13.50;;;;;;;16.43;71.84;98529.63;5012180;28;20185;-48
2022/05/03 10:51:09;;;;;;;18.53;13.33;;;;;;;16.56;71.38;98536.81;4996891;28;20239;-48
2022/05/03 10:53:40;;;;;;;15.10;11.63;;;;;;;16.75;71.38;98535.34;4996603;28;20239;-49
2022/05/03 10:56:18;;;;;;;15.70;12.00;;;;;;;16.92;70.78;98534.03;5014202;28;20220;-49
2022/05/03 10:59:02;;;;;;;18.23;13.03;;;;;;;17.22;69.70;98536.41;4996752;28;20219;-48
2022/05/03 11:01:29;;;;;;;12.57;9.50;;;;;;;17.51;69.49;98529.22;4974848;28;20234;-51
2022/05/03 11:04:11;;;;;;;18.07;13.73;;;;;;;17.73;68.20;98530.91;4994583;28;20270;-50
2022/05/03 11:06:39;;;;;;;16.10;10.47;;;;;;;17.90;68.06;98526.88;4994723;28;20211;-52
2022/05/03 11:09:15;;;;;;;11.00;8.20;;;;;;;18.10;67.12;98532.19;4977007;28;20580;-51
2022/05/03 11:11:52;;;;;;;9.37;8.47;;;;;;;18.53;65.43;98517.78;4994522;28;20601;-49
2022/05/03 11:14:48;;;;;;;11.50;8.03;;;;;;;18.77;62.76;98518.13;4994075;28;20205;-49
2022/05/03 11:17:15;;;;;;;7.30;6.60;;;;;;;18.98;58.92;98521.56;5009846;28;20287;-50
2022/05/03 11:20:00;;;;;;;6.60;5.57;;;;;;;19.40;57.87;98515.91;4996350;28;20208;-49
2022/05/03 11:22:32;;;;;;;7.93;5.37;;;;;;;19.74;55.77;98512.06;5013736;28;20194;-50
2022/05/03 11:25:06;;;;;;;5.00;4.50;;;;;;;19.89;55.14;98509.16;5023409;28;20214;-49
2022/05/03 11:27:33;;;;;;;4.33;3.93;;;;;;;19.84;52.81;98514.25;5020710;28;20206;-50
2022/05/03 11:30:03;;;;;;;5.43;3.80;;;;;;;20.15;52.94;98515.25;5022558;28;20276;-49
2022/05/03 11:32:33;;;;;;;3.80;3.23;;;;;;;20.38;51.84;98511.19;5002392;28;20215;-50
2022/05/03 11:35:06;;;;;;;5.97;3.60;;;;;;;20.41;50.42;98510.75;5004541;28;20304;-50
2022/05/03 11:37:35;;;;;;;5.50;3.00;;;;;;;20.32;50.73;98504.94;5020713;28;20196;-49
2022/05/03 11:40:06;;;;;;;2.90;2.70;;;;;;;20.42;48.60;98507.09;5014812;28;20759;-50
2022/05/03 11:42:40;;;;;;;6.43;2.77;;;;;;;20.33;49.50;98501.25;5013536;28;20270;-49
2022/05/03 11:45:10;;;;;;;4.53;3.00;;;;;;;20.55;47.73;98503.53;5012633;28;20212;-49
2022/05/03 11:47:42;;;;;;;3.73;3.03;;;;;;;20.50;48.59;98498.84;5013237;28;20560;-50
2022/05/03 11:50:12;;;;;;;3.73;2.70;;;;;;;20.65;48.85;98492.38;4995785;28;20192;-53
2022/05/03 11:58:23;;;;;;;5.10;3.23;;;;;;;20.79;46.14;98493.09;4952601;29;20195;-53
2022/05/03 12:00:50;;;;;;;4.43;2.90;;;;;;;21.06;45.36;98487.47;4992224;28;20233;-53
2022/05/03 12:03:18;;;;;;;2.73;2.47;;;;;;;21.57;45.25;98488.03;5013198;28;20219;-53
2022/05/03 12:06:01;;;;;;;5.03;2.27;;;;;;;21.68;39.59;98478.53;5012621;28;20225;-51
2022/05/03 12:08:30;;;;;;;3.10;2.10;;;;;;;20.78;39.90;98479.03;5007043;28;20193;-51
2022/05/03 12:10:58;;;;;;;3.40;2.53;;;;;;;20.60;41.18;98473.69;4995983;28;20198;-51
2022/05/03 12:13:31;;;;;;;3.23;2.80;;;;;;;19.85;43.42;98468.19;5014786;28;20551;-52
2022/05/03 12:16:11;;;;;;;5.77;2.87;;;;;;;20.29;44.16;98464.78;5012531;28;20210;-50
2022/05/03 12:18:40;;;;;;;6.37;3.90;;;;;;;19.74;45.86;98469.69;5012688;28;20259;-50
2022/05/03 12:21:10;;;;;;;4.30;3.90;;;;;;;19.96;45.08;98468.56;5012310;28;20216;-49